Time;durP1;ratioP1;P1;durP2;ratioP2;P2;SDS_P1;SDS_P2;PMS_P1;PMS_P2;Temp;Humidity;BMP_temperature;BMP_pressure;BME280_temperature;BME280_humidity;BME280_pressure;Samples;Min_cycle;Max_cycle;Signal;HPM_P1;HPM_P2
2022/07/01 00:00:38;;;;;;;6.15;1.30;;;15.10;99.90;;;;;;4878712;29;20127;-38
2022/07/01 00:03:06;;;;;;;3.53;0.90;;;15.10;99.90;;;;;;4810911;29;20125;-43
2022/07/01 00:05:33;;;;;;;5.05;1.00;;;15.10;99.90;;;;;;4849121;29;20474;-39
2022/07/01 00:07:59;;;;;;;3.47;0.68;;;15.10;99.90;;;;;;4853187;29;20057;-40
2022/07/01 00:10:24;;;;;;;3.22;0.70;;;15.10;99.90;;;;;;4867386;29;20056;-40
2022/07/01 00:12:50;;;;;;;2.30;0.65;;;15.10;99.90;;;;;;4847536;29;20359;-41
2022/07/01 00:15:22;;;;;;;4.63;0.90;;;15.10;99.90;;;;;;4859703;29;20042;-40
2022/07/01 00:17:49;;;;;;;4.35;1.10;;;15.10;99.90;;;;;;4860453;29;22201;-41
2022/07/01 00:20:18;;;;;;;3.80;1.10;;;15.10;99.90;;;;;;4852565;29;20065;-40
2022/07/01 00:22:47;;;;;;;;;;;15.10;99.90;;;;;;4835891;29;20405;-40
2022/07/01 00:25:13;;;;;;;3.08;0.80;;;15.10;99.90;;;;;;4854031;29;19931;-40
2022/07/01 00:27:43;;;;;;;3.85;0.90;;;15.10;99.90;;;;;;4843857;29;20127;-40
2022/07/01 00:30:10;;;;;;;3.15;0.90;;;15.10;99.90;;;;;;4855869;29;20060;-41
2022/07/01 00:32:36;;;;;;;3.42;0.70;;;15.10;99.90;;;;;;4870897;29;20124;-41
2022/07/01 00:35:05;;;;;;;3.03;0.65;;;15.20;99.90;;;;;;4870733;29;20045;-40
2022/07/01 00:37:34;;;;;;;3.33;0.73;;;15.20;99.90;;;;;;4826246;29;20054;-40
2022/07/01 00:40:05;;;;;;;5.03;1.17;;;15.20;99.90;;;;;;4856956;29;20077;-43
2022/07/01 00:42:49;;;;;;;5.30;0.83;;;15.20;99.90;;;;;;4825335;29;20492;-41
2022/07/01 00:45:16;;;;;;;3.63;0.75;;;15.20;99.90;;;;;;4853929;29;20424;-40
2022/07/01 00:48:01;;;;;;;7.65;1.00;;;15.20;99.90;;;;;;4857382;29;20136;-40
2022/07/01 00:50:27;;;;;;;4.97;1.00;;;15.20;99.90;;;;;;4861615;29;20077;-40
2022/07/01 00:52:54;;;;;;;2.08;0.60;;;15.20;99.90;;;;;;4868047;29;20064;-41
2022/07/01 00:55:20;;;;;;;2.90;0.73;;;15.20;99.90;;;;;;4870346;29;20093;-40
2022/07/01 00:57:49;;;;;;;4.63;0.85;;;15.20;99.90;;;;;;4834265;29;20049;-39
2022/07/01 01:00:24;;;;;;;1.08;0.50;;;15.20;99.90;;;;;;4868727;29;20053;-39
2022/07/01 01:02:50;;;;;;;2.15;0.50;;;15.20;99.90;;;;;;4851697;29;20057;-40
2022/07/01 01:05:26;;;;;;;2.90;0.70;;;15.20;99.90;;;;;;4851753;29;20041;-39
2022/07/01 01:07:52;;;;;;;3.00;0.70;;;15.10;99.90;;;;;;4837143;29;20049;-39
2022/07/01 01:10:19;;;;;;;2.97;0.70;;;15.20;99.90;;;;;;4838283;29;20402;-39
2022/07/01 01:12:49;;;;;;;2.28;0.70;;;15.20;99.90;;;;;;4835000;29;20036;-40
2022/07/01 01:15:19;;;;;;;3.38;0.60;;;15.20;99.90;;;;;;4868516;29;20382;-39
2022/07/01 01:17:47;;;;;;;4.00;1.20;;;15.20;99.90;;;;;;4837002;29;20061;-39
2022/07/01 01:20:15;;;;;;;4.07;0.80;;;15.20;99.90;;;;;;4855021;29;20663;-38
2022/07/01 01:22:41;;;;;;;1.85;1.02;;;15.20;99.90;;;;;;4852732;29;20050;-37
2022/07/01 01:25:07;;;;;;;3.13;1.02;;;15.10;99.90;;;;;;4851949;29;20050;-38
2022/07/01 01:27:33;;;;;;;4.22;1.20;;;15.20;99.90;;;;;;4837767;29;20053;-37
2022/07/01 01:29:58;;;;;;;2.20;0.85;;;15.20;99.90;;;;;;4850343;29;20152;-38
2022/07/01 01:32:24;;;;;;;2.25;1.02;;;15.20;99.90;;;;;;4853184;29;20141;-37
2022/07/01 01:34:50;;;;;;;3.53;1.30;;;15.20;99.90;;;;;;4853632;29;20738;-37
2022/07/01 01:37:15;;;;;;;2.58;1.40;;;15.20;99.90;;;;;;4838738;29;20853;-37
2022/07/01 01:39:41;;;;;;;2.33;1.17;;;15.20;99.90;;;;;;4852417;29;20072;-37
2022/07/01 01:42:07;;;;;;;1.85;1.50;;;15.20;99.90;;;;;;4818995;29;20378;-37
2022/07/01 01:44:33;;;;;;;2.00;1.40;;;15.20;99.90;;;;;;4851672;29;20050;-37
2022/07/01 01:46:58;;;;;;;1.92;1.27;;;15.10;99.90;;;;;;4841080;29;20084;-38
2022/07/01 01:49:24;;;;;;;2.20;1.52;;;15.10;99.90;;;;;;4852976;29;20057;-37
2022/07/01 01:51:50;;;;;;;4.93;1.48;;;15.10;99.90;;;;;;4853114;29;20132;-37
2022/07/01 01:54:15;;;;;;;4.25;1.35;;;15.10;99.90;;;;;;4852666;29;20057;-37
2022/07/01 01:56:41;;;;;;;3.65;1.38;;;15.10;99.90;;;;;;4839492;29;20422;-37
2022/07/01 01:59:07;;;;;;;3.60;1.70;;;15.10;99.90;;;;;;4851498;29;20081;-37
2022/07/01 02:01:32;;;;;;;1.83;1.40;;;15.10;99.90;;;;;;4853518;29;20054;-37
2022/07/01 02:03:58;;;;;;;4.22;1.35;;;15.10;99.90;;;;;;4852269;29;20088;-38
2022/07/01 02:06:25;;;;;;;5.13;1.50;;;15.10;99.90;;;;;;4825375;29;20425;-38
2022/07/01 02:08:50;;;;;;;2.72;1.42;;;15.10;99.90;;;;;;4831062;29;20061;-37
2022/07/01 02:11:16;;;;;;;2.67;1.50;;;15.10;99.90;;;;;;4853484;29;20049;-38
2022/07/01 02:13:44;;;;;;;2.97;1.27;;;15.10;99.90;;;;;;4834874;29;20109;-37
2022/07/01 02:16:10;;;;;;;2.50;1.85;;;15.10;99.90;;;;;;4848281;29;20057;-38
2022/07/01 02:18:35;;;;;;;1.40;1.17;;;15.10;99.90;;;;;;4844414;29;20073;-37
2022/07/01 02:21:01;;;;;;;2.10;1.60;;;15.10;99.90;;;;;;4853190;29;20049;-37
2022/07/01 02:23:27;;;;;;;1.70;1.10;;;15.10;99.90;;;;;;4836015;29;20053;-38
2022/07/01 02:25:52;;;;;;;2.70;1.42;;;15.10;99.90;;;;;;4853246;29;20440;-37
2022/07/01 02:28:18;;;;;;;4.18;1.55;;;15.10;99.90;;;;;;4837043;29;20050;-37
2022/07/01 02:30:44;;;;;;;2.72;1.33;;;15.10;99.90;;;;;;4852605;29;20061;-37
2022/07/01 02:33:10;;;;;;;4.07;1.58;;;15.10;99.90;;;;;;4852366;29;20149;-37
2022/07/01 02:35:37;;;;;;;3.67;1.50;;;15.00;99.90;;;;;;4852808;29;20057;-38
2022/07/01 02:38:04;;;;;;;2.38;1.38;;;15.10;99.90;;;;;;4837818;29;20050;-38
2022/07/01 02:40:29;;;;;;;2.35;1.30;;;15.00;99.90;;;;;;4852888;29;20072;-37
2022/07/01 02:42:55;;;;;;;2.80;1.52;;;15.00;99.90;;;;;;4848810;29;20049;-37
2022/07/01 02:45:21;;;;;;;5.47;1.50;;;15.00;99.90;;;;;;4851788;29;20065;-38
2022/07/01 02:47:47;;;;;;;2.50;1.65;;;15.00;99.90;;;;;;4835970;29;20069;-38
2022/07/01 02:50:14;;;;;;;3.53;1.45;;;15.00;99.90;;;;;;4852828;29;20053;-38
2022/07/01 02:52:41;;;;;;;2.85;1.60;;;15.00;99.90;;;;;;4851414;29;20045;-38
2022/07/01 02:55:12;;;;;;;3.50;1.30;;;15.10;99.90;;;;;;4855260;29;20052;-38
2022/07/01 02:57:42;;;;;;;3.67;1.42;;;15.00;99.90;;;;;;4819037;29;20042;-38
2022/07/01 03:00:10;;;;;;;3.90;1.27;;;14.90;99.90;;;;;;4852149;29;20049;-38
2022/07/01 03:02:36;;;;;;;3.30;1.65;;;14.90;99.90;;;;;;4852460;29;20045;-37
2022/07/01 03:05:03;;;;;;;4.68;1.67;;;14.90;99.90;;;;;;4852823;29;20064;-37
2022/07/01 03:07:29;;;;;;;3.72;1.70;;;14.90;99.90;;;;;;4837768;29;20050;-38
2022/07/01 03:09:55;;;;;;;6.13;1.83;;;14.90;99.90;;;;;;4855712;29;20046;-37
2022/07/01 03:12:32;;;;;;;4.82;2.00;;;14.80;99.90;;;;;;4855466;29;20105;-37
2022/07/01 03:15:09;;;;;;;2.70;1.65;;;14.90;99.90;;;;;;4857816;29;20061;-37
2022/07/01 03:17:38;;;;;;;3.38;2.00;;;14.80;99.90;;;;;;4823422;29;20050;-37
2022/07/01 03:20:05;;;;;;;3.05;2.03;;;14.80;99.90;;;;;;4860225;29;20117;-37
2022/07/01 03:22:31;;;;;;;2.85;1.95;;;14.80;99.90;;;;;;4844871;29;20120;-37
2022/07/01 03:24:57;;;;;;;7.82;2.10;;;14.80;99.90;;;;;;4855898;29;20137;-37
2022/07/01 03:27:24;;;;;;;2.70;2.00;;;14.80;99.90;;;;;;4840023;29;20068;-38
2022/07/01 03:29:50;;;;;;;2.35;2.00;;;14.70;99.90;;;;;;4854133;29;20144;-37
2022/07/01 03:32:16;;;;;;;5.65;2.40;;;14.70;99.90;;;;;;4854895;29;20065;-37
2022/07/01 03:34:44;;;;;;;2.95;2.10;;;14.70;99.90;;;;;;4834175;29;20072;-37
2022/07/01 03:37:11;;;;;;;2.65;1.83;;;14.70;99.90;;;;;;4834782;29;20081;-38
2022/07/01 03:39:37;;;;;;;2.55;2.35;;;14.70;99.90;;;;;;4852522;29;20080;-38
2022/07/01 03:42:04;;;;;;;3.70;2.65;;;14.70;99.90;;;;;;4852635;29;20132;-37
2022/07/01 03:44:30;;;;;;;3.10;2.30;;;14.70;99.90;;;;;;4854105;29;20139;-38
2022/07/01 03:46:56;;;;;;;5.40;2.55;;;14.60;99.90;;;;;;4838603;29;20409;-37
2022/07/01 03:49:22;;;;;;;3.92;2.33;;;14.60;99.90;;;;;;4853155;29;20050;-37
2022/07/01 03:51:49;;;;;;;3.00;2.42;;;14.60;99.90;;;;;;4838520;29;20080;-38
2022/07/01 03:54:30;;;;;;;3.33;2.53;;;14.70;99.90;;;;;;4853838;29;20160;-37
2022/07/01 03:56:57;;;;;;;5.10;2.78;;;14.70;99.90;;;;;;4840780;29;20133;-37
2022/07/01 03:59:24;;;;;;;5.47;2.80;;;14.70;99.90;;;;;;4853896;29;20050;-37
2022/07/01 04:01:49;;;;;;;4.30;2.60;;;14.70;99.90;;;;;;4850981;29;20062;-37
2022/07/01 04:04:15;;;;;;;3.08;2.70;;;14.70;99.90;;;;;;4851925;29;20057;-38
2022/07/01 04:06:42;;;;;;;5.47;2.90;;;14.70;99.90;;;;;;4837665;29;20538;-37
2022/07/01 04:09:08;;;;;;;6.15;3.03;;;14.80;99.90;;;;;;4852809;29;20046;-37
2022/07/01 04:11:35;;;;;;;7.30;3.67;;;14.70;99.90;;;;;;4850842;29;20567;-37
2022/07/01 04:14:01;;;;;;;5.10;3.20;;;14.80;99.90;;;;;;4857214;29;20128;-38
2022/07/01 04:16:26;;;;;;;6.25;3.40;;;14.70;99.90;;;;;;4843341;29;20787;-37
2022/07/01 04:18:52;;;;;;;6.13;3.40;;;14.70;99.90;;;;;;4854265;29;20053;-37
2022/07/01 04:24:02;;;;;;;5.88;3.65;;;14.70;99.90;;;;;;4853603;29;20049;-38
2022/07/01 04:26:28;;;;;;;5.50;3.72;;;14.70;99.90;;;;;;4852464;29;20057;-38
2022/07/01 04:28:54;;;;;;;9.18;3.97;;;14.70;99.90;;;;;;4834310;29;20053;-37
2022/07/01 04:31:21;;;;;;;6.90;4.15;;;14.70;99.90;;;;;;4854432;29;20113;-37
2022/07/01 04:33:48;;;;;;;9.73;4.20;;;14.70;99.90;;;;;;4853104;29;20490;-37
2022/07/01 04:36:14;;;;;;;6.65;4.05;;;14.70;99.90;;;;;;4845917;29;20057;-37
2022/07/01 04:38:40;;;;;;;5.47;3.90;;;14.70;99.90;;;;;;4830982;29;20746;-37
2022/07/01 04:43:50;;;;;;;6.68;3.95;;;14.70;99.90;;;;;;4851016;29;20114;-38
2022/07/01 04:46:16;;;;;;;6.15;4.10;;;14.70;99.90;;;;;;4847235;29;20425;-38
2022/07/01 04:48:41;;;;;;;7.43;4.15;;;14.70;99.90;;;;;;4848290;29;20058;-37
2022/07/01 04:51:07;;;;;;;5.53;3.92;;;14.70;99.90;;;;;;4854875;29;20053;-37
2022/07/01 04:53:33;;;;;;;8.75;4.10;;;14.70;99.90;;;;;;4852789;29;20046;-38
2022/07/01 04:55:58;;;;;;;6.55;4.03;;;14.70;99.90;;;;;;4853601;29;20088;-38
2022/07/01 04:58:24;;;;;;;7.90;4.40;;;14.70;99.90;;;;;;4837682;29;20057;-37
2022/07/01 05:00:50;;;;;;;6.22;4.40;;;14.70;99.90;;;;;;4853230;29;20424;-38
2022/07/01 05:03:16;;;;;;;5.45;3.85;;;14.70;99.90;;;;;;4853137;29;20089;-38
2022/07/01 05:05:43;;;;;;;8.50;4.18;;;14.70;99.90;;;;;;4855640;29;20647;-37
2022/07/01 05:08:08;;;;;;;8.32;3.85;;;14.70;99.90;;;;;;4838267;29;20794;-38
2022/07/01 05:10:34;;;;;;;7.63;3.80;;;14.80;99.90;;;;;;4854258;29;20050;-38
2022/07/01 05:13:00;;;;;;;6.10;4.55;;;14.80;99.90;;;;;;4852974;29;20049;-38
2022/07/01 05:15:25;;;;;;;7.03;4.60;;;14.80;99.90;;;;;;4855204;29;20065;-38
2022/07/01 05:23:20;;;;;;;6.93;4.80;;;14.80;99.90;;;;;;4850243;29;20113;-38
2022/07/01 05:25:46;;;;;;;5.03;4.47;;;14.80;99.90;;;;;;4856688;29;20148;-38
2022/07/01 05:28:12;;;;;;;7.57;4.90;;;14.80;99.90;;;;;;4841031;29;20120;-38
2022/07/01 05:30:37;;;;;;;9.90;5.65;;;14.90;99.90;;;;;;4854691;29;20497;-38
2022/07/01 05:33:03;;;;;;;7.80;5.10;;;14.90;99.90;;;;;;4859747;29;20076;-37
2022/07/01 05:35:29;;;;;;;10.18;6.47;;;14.90;99.90;;;;;;4859326;29;20117;-38
2022/07/01 05:37:55;;;;;;;10.32;5.88;;;14.90;99.90;;;;;;4837886;29;20065;-37
2022/07/01 05:40:21;;;;;;;10.27;6.18;;;14.90;99.90;;;;;;4836720;29;20113;-37
2022/07/01 05:42:46;;;;;;;10.65;7.00;;;15.00;99.90;;;;;;4850517;29;20696;-37
2022/07/01 05:45:12;;;;;;;11.63;7.95;;;15.00;99.90;;;;;;4853658;29;20125;-38
2022/07/01 05:47:37;;;;;;;12.38;8.55;;;15.00;99.90;;;;;;4836854;29;20045;-38
2022/07/01 05:50:03;;;;;;;11.38;8.52;;;15.00;99.90;;;;;;4853667;29;20065;-37
2022/07/01 05:52:29;;;;;;;12.18;8.70;;;15.00;99.90;;;;;;4852822;29;20061;-38
2022/07/01 05:54:55;;;;;;;11.07;8.93;;;15.00;99.90;;;;;;4837049;29;20596;-38
2022/07/01 05:57:20;;;;;;;15.95;10.27;;;15.10;99.90;;;;;;4838008;29;20525;-37
2022/07/01 05:59:46;;;;;;;18.55;10.90;;;15.00;99.90;;;;;;4851446;29;20652;-37
2022/07/01 06:02:12;;;;;;;16.08;9.93;;;15.10;99.90;;;;;;4852732;29;20057;-38
2022/07/01 06:04:37;;;;;;;15.25;10.70;;;15.10;99.90;;;;;;4853424;29;20056;-37
2022/07/01 06:07:03;;;;;;;13.85;10.77;;;15.20;99.90;;;;;;4837713;29;20493;-38
2022/07/01 06:09:29;;;;;;;17.38;11.32;;;15.20;99.90;;;;;;4836267;29;20061;-38
2022/07/01 06:11:54;;;;;;;15.75;10.85;;;15.20;99.90;;;;;;4853414;29;20080;-38
2022/07/01 06:14:20;;;;;;;19.13;11.70;;;15.30;99.90;;;;;;4853181;29;20053;-38
2022/07/01 06:16:46;;;;;;;18.40;11.63;;;15.30;99.90;;;;;;4838606;29;20466;-38
2022/07/01 06:19:11;;;;;;;18.73;11.63;;;15.30;99.90;;;;;;4851813;29;20049;-37
2022/07/01 06:21:37;;;;;;;15.65;11.73;;;15.30;99.90;;;;;;4860623;29;20049;-38
2022/07/01 06:24:03;;;;;;;17.98;11.88;;;15.40;99.90;;;;;;4850502;29;20136;-38
2022/07/01 06:26:28;;;;;;;20.83;12.88;;;15.50;99.90;;;;;;4839216;29;20141;-38
2022/07/01 06:28:54;;;;;;;17.00;12.48;;;15.50;99.90;;;;;;4849346;29;20140;-38
2022/07/01 06:31:20;;;;;;;17.77;12.20;;;15.50;99.90;;;;;;4852509;29;20057;-38
2022/07/01 06:33:46;;;;;;;19.85;12.80;;;15.60;99.90;;;;;;4835393;29;20049;-38
2022/07/01 06:36:13;;;;;;;18.02;12.32;;;15.60;99.90;;;;;;4831190;29;20413;-38
2022/07/01 06:38:39;;;;;;;18.13;11.88;;;15.70;99.90;;;;;;4854284;29;20061;-38
2022/07/01 06:43:49;;;;;;;15.77;12.05;;;15.70;99.90;;;;;;4850789;29;20529;-38
2022/07/01 06:46:14;;;;;;;17.42;12.02;;;15.80;99.90;;;;;;4836394;29;20053;-38
2022/07/01 06:48:40;;;;;;;18.33;13.13;;;15.80;99.90;;;;;;4848189;29;20048;-38
2022/07/01 06:51:06;;;;;;;21.30;13.50;;;15.90;99.90;;;;;;4855855;29;20487;-38
2022/07/01 06:53:31;;;;;;;19.77;13.57;;;15.90;99.90;;;;;;4854978;29;20056;-38
2022/07/01 06:55:57;;;;;;;19.45;13.48;;;15.90;99.90;;;;;;4843717;29;20092;-39
2022/07/01 06:58:23;;;;;;;21.45;13.60;;;16.00;99.90;;;;;;4833545;29;20049;-38
2022/07/01 07:00:49;;;;;;;19.88;13.45;;;16.00;99.90;;;;;;4861040;29;20096;-38
2022/07/01 07:03:15;;;;;;;18.90;13.85;;;16.00;99.90;;;;;;4831643;29;20132;-38
2022/07/01 07:05:40;;;;;;;20.92;13.57;;;16.10;99.90;;;;;;4856450;29;20049;-38
2022/07/01 07:08:06;;;;;;;20.55;13.48;;;16.10;99.90;;;;;;4842374;29;20094;-38
2022/07/01 07:10:32;;;;;;;18.65;12.70;;;16.10;99.90;;;;;;4834284;29;20105;-38
2022/07/01 07:12:57;;;;;;;21.73;13.50;;;16.10;99.90;;;;;;4853434;29;20523;-38
2022/07/01 07:15:23;;;;;;;20.88;14.00;;;16.10;99.90;;;;;;4855753;29;20056;-38
2022/07/01 07:17:49;;;;;;;19.90;13.07;;;16.20;99.90;;;;;;4844040;29;20057;-39
2022/07/01 07:20:15;;;;;;;21.60;13.75;;;16.20;99.90;;;;;;4838189;29;20048;-39
2022/07/01 07:22:40;;;;;;;21.83;15.15;;;16.30;99.90;;;;;;4859952;29;20046;-38
2022/07/01 07:25:06;;;;;;;21.58;14.80;;;16.20;99.90;;;;;;4854784;29;20065;-38
2022/07/01 07:27:32;;;;;;;19.33;13.60;;;16.20;99.90;;;;;;4822529;29;20046;-38
2022/07/01 07:29:58;;;;;;;20.48;14.45;;;16.30;99.90;;;;;;4855044;29;20068;-38
2022/07/01 07:32:23;;;;;;;20.90;12.90;;;16.30;99.90;;;;;;4847157;29;20057;-38
2022/07/01 07:34:49;;;;;;;18.95;13.20;;;16.30;99.90;;;;;;4837710;29;20057;-38
2022/07/01 07:37:14;;;;;;;18.88;14.10;;;16.30;99.90;;;;;;4837855;29;20049;-38
2022/07/01 07:39:40;;;;;;;19.08;13.40;;;16.30;99.90;;;;;;4853919;29;20072;-38
2022/07/01 07:42:06;;;;;;;20.35;13.82;;;16.40;99.90;;;;;;4847583;29;20128;-38
2022/07/01 07:44:32;;;;;;;16.60;13.75;;;16.40;99.90;;;;;;4857915;29;20549;-38
2022/07/01 07:46:58;;;;;;;21.25;12.93;;;16.40;99.90;;;;;;4835932;29;20052;-38
2022/07/01 07:49:24;;;;;;;21.15;13.40;;;16.50;99.90;;;;;;4849059;29;20553;-38
2022/07/01 07:51:50;;;;;;;21.20;13.43;;;16.50;99.90;;;;;;4856640;29;20497;-38
2022/07/01 07:54:16;;;;;;;18.17;12.65;;;16.50;99.90;;;;;;4855861;29;20417;-38
2022/07/01 07:56:43;;;;;;;15.65;12.82;;;16.50;99.90;;;;;;4840043;29;20520;-38
2022/07/01 07:59:08;;;;;;;17.88;12.20;;;16.60;99.90;;;;;;4852164;29;20520;-38
2022/07/01 08:01:34;;;;;;;19.40;12.52;;;16.60;99.90;;;;;;4857138;29;20057;-38
2022/07/01 08:04:00;;;;;;;20.23;13.68;;;16.60;99.90;;;;;;4845602;29;20045;-38
2022/07/01 08:06:26;;;;;;;19.52;12.43;;;16.70;99.90;;;;;;4835124;29;20559;-38
2022/07/01 08:08:51;;;;;;;20.90;14.77;;;16.70;99.90;;;;;;4843517;29;20046;-37
2022/07/01 08:11:17;;;;;;;16.48;12.35;;;16.70;99.90;;;;;;4835283;29;20092;-38
2022/07/01 08:13:43;;;;;;;19.85;11.93;;;16.80;99.90;;;;;;4841233;29;20059;-37
2022/07/01 08:16:09;;;;;;;18.10;11.93;;;16.80;99.90;;;;;;4825825;29;20056;-38
2022/07/01 08:18:35;;;;;;;15.80;12.50;;;16.90;99.90;;;;;;4847107;29;20068;-38
2022/07/01 08:21:01;;;;;;;17.08;11.88;;;16.90;99.90;;;;;;4855319;29;20057;-39
2022/07/01 08:23:27;;;;;;;18.20;11.10;;;17.00;99.90;;;;;;4854163;29;20848;-38
2022/07/01 08:25:52;;;;;;;17.23;11.32;;;17.00;99.90;;;;;;4855802;29;20049;-38
2022/07/01 08:28:18;;;;;;;16.63;10.88;;;17.10;99.90;;;;;;4837633;29;20572;-38
2022/07/01 08:30:45;;;;;;;18.10;10.98;;;17.10;99.90;;;;;;4855297;29;20057;-39
2022/07/01 08:33:11;;;;;;;13.20;9.50;;;17.20;99.90;;;;;;4849731;29;20516;-38
2022/07/01 08:35:37;;;;;;;13.10;9.48;;;17.20;99.90;;;;;;4837793;29;20061;-39
2022/07/01 08:38:03;;;;;;;16.60;10.02;;;17.20;99.90;;;;;;4837610;29;20049;-39
2022/07/01 08:40:30;;;;;;;14.95;9.48;;;17.30;99.90;;;;;;4854452;29;20053;-38
2022/07/01 08:43:01;;;;;;;14.48;10.35;;;17.30;99.90;;;;;;4854456;29;20109;-39
2022/07/01 08:45:28;;;;;;;13.70;10.25;;;17.50;99.90;;;;;;4854948;29;20087;-39
2022/07/01 08:47:57;;;;;;;11.20;8.13;;;17.60;99.90;;;;;;4835808;29;20053;-39
2022/07/01 08:50:25;;;;;;;9.98;7.47;;;17.60;99.90;;;;;;4854294;29;20574;-38
2022/07/01 08:52:52;;;;;;;8.93;6.03;;;17.70;99.90;;;;;;4853227;29;20051;-39
2022/07/01 08:55:21;;;;;;;9.18;5.88;;;17.70;99.90;;;;;;4853775;29;20096;-38
2022/07/01 08:57:47;;;;;;;12.20;6.35;;;17.70;99.90;;;;;;4838597;29;20589;-38
2022/07/01 09:00:13;;;;;;;11.88;6.43;;;17.80;99.90;;;;;;4853583;29;20051;-39
2022/07/01 09:03:00;;;;;;;11.15;5.78;;;17.90;99.90;;;;;;4857180;29;20080;-39
2022/07/01 09:05:28;;;;;;;7.50;5.60;;;17.90;99.90;;;;;;4855461;29;20048;-38
2022/07/01 09:08:06;;;;;;;11.57;6.20;;;17.90;99.90;;;;;;4820527;29;20047;-39
2022/07/01 09:10:36;;;;;;;10.13;5.70;;;17.90;99.90;;;;;;4854200;29;20060;-39
2022/07/01 09:13:07;;;;;;;9.23;4.65;;;17.90;99.90;;;;;;4852776;29;20052;-38
2022/07/01 09:15:33;;;;;;;;;;;18.00;99.90;;;;;;4848594;29;20049;-39
2022/07/01 09:18:09;;;;;;;11.07;5.18;;;18.00;99.90;;;;;;4833670;29;20027;-38
2022/07/01 09:20:37;;;;;;;10.02;6.10;;;18.10;99.90;;;;;;4858913;29;20053;-38
2022/07/01 09:23:06;;;;;;;8.55;5.70;;;18.20;99.90;;;;;;4852584;29;20524;-39
2022/07/01 09:25:39;;;;;;;8.40;4.70;;;18.10;99.90;;;;;;4847418;29;20579;-39
2022/07/01 09:28:16;;;;;;;10.32;4.55;;;18.10;99.90;;;;;;4836146;29;20050;-38
2022/07/01 09:30:44;;;;;;;10.32;4.57;;;18.10;99.90;;;;;;4852888;29;20137;-38
2022/07/01 09:33:21;;;;;;;7.65;3.75;;;18.20;99.90;;;;;;4851844;29;20550;-38
2022/07/01 09:35:51;;;;;;;7.50;4.55;;;18.20;99.90;;;;;;4847795;29;20061;-38
2022/07/01 09:38:22;;;;;;;9.68;4.20;;;18.30;99.90;;;;;;4819609;29;20069;-39
2022/07/01 09:40:58;;;;;;;5.28;2.90;;;18.40;99.90;;;;;;4852268;29;20076;-39
2022/07/01 09:43:25;;;;;;;8.32;2.97;;;18.40;99.90;;;;;;4851331;29;20049;-39
2022/07/01 09:45:54;;;;;;;6.22;1.90;;;18.60;99.90;;;;;;4853335;29;20109;-40
2022/07/01 09:48:20;;;;;;;7.78;2.30;;;18.60;99.90;;;;;;4835181;29;20049;-39
2022/07/01 09:50:46;;;;;;;5.28;1.25;;;18.70;99.90;;;;;;4857489;29;20632;-39
2022/07/01 09:53:13;;;;;;;6.13;2.10;;;18.70;99.90;;;;;;4855352;29;20053;-39
2022/07/01 09:55:39;;;;;;;4.50;2.08;;;18.80;99.90;;;;;;4851926;29;20073;-39
2022/07/01 09:58:06;;;;;;;7.78;1.92;;;18.80;99.90;;;;;;4837188;29;20042;-39
2022/07/01 10:00:32;;;;;;;6.85;2.20;;;18.70;99.90;;;;;;4850970;29;20077;-39
2022/07/01 10:03:00;;;;;;;6.88;1.98;;;18.80;99.90;;;;;;4850371;29;20106;-40
2022/07/01 10:05:28;;;;;;;4.40;1.70;;;18.80;99.90;;;;;;4850707;29;20051;-38
2022/07/01 10:08:24;;;;;;;5.50;2.10;;;18.80;99.90;;;;;;4836907;29;20510;-38
2022/07/01 10:11:24;;;;;;;5.70;2.00;;;18.90;99.90;;;;;;4853370;29;20693;-40
2022/07/01 10:13:51;;;;;;;6.82;2.70;;;19.00;99.90;;;;;;4848680;29;20061;-39
2022/07/01 10:16:17;;;;;;;5.25;2.28;;;19.10;99.90;;;;;;4841308;29;20053;-40
2022/07/01 10:18:43;;;;;;;7.88;2.00;;;19.10;99.90;;;;;;4846682;29;20054;-39
2022/07/01 10:21:11;;;;;;;6.80;1.60;;;19.20;99.90;;;;;;4856623;29;20065;-38
2022/07/01 10:23:39;;;;;;;4.15;1.40;;;19.20;99.90;;;;;;4858357;29;20057;-38
2022/07/01 10:26:07;;;;;;;5.15;1.90;;;19.20;99.90;;;;;;4854924;29;20261;-38
2022/07/01 10:28:46;;;;;;;6.72;1.60;;;19.30;99.90;;;;;;4845134;29;20520;-38
2022/07/01 10:31:17;;;;;;;5.25;1.27;;;19.40;99.90;;;;;;4858775;29;20513;-38
2022/07/01 10:33:57;;;;;;;3.35;1.42;;;19.50;99.90;;;;;;4853241;29;20053;-38
2022/07/01 10:36:25;;;;;;;3.17;1.63;;;19.50;99.90;;;;;;4844999;29;20049;-40
2022/07/01 10:41:51;;;;;;;4.07;2.10;;;19.30;99.90;;;;;;4850368;29;20110;-38
2022/07/01 10:44:17;;;;;;;7.90;2.45;;;19.30;99.90;;;;;;4851700;29;20418;-38
2022/07/01 10:46:44;;;;;;;5.88;2.72;;;19.20;99.90;;;;;;4844568;29;20105;-38
2022/07/01 10:49:18;;;;;;;6.35;3.53;;;19.20;99.90;;;;;;4855345;29;20113;-38
2022/07/01 10:51:52;;;;;;;5.88;2.00;;;19.10;99.90;;;;;;4839199;29;20071;-38
2022/07/01 10:54:36;;;;;;;6.07;1.20;;;18.80;99.90;;;;;;4855365;29;20059;-38
2022/07/01 10:59:45;;;;;;;5.40;1.00;;;18.50;99.90;;;;;;4851266;29;20191;-38
2022/07/01 11:02:30;;;;;;;4.85;1.30;;;18.30;99.90;;;;;;4850896;29;20098;-38
2022/07/01 11:04:58;;;;;;;3.55;0.80;;;18.20;99.90;;;;;;4839498;29;20568;-38
2022/07/01 11:07:25;;;;;;;2.38;0.52;;;18.20;99.90;;;;;;4841547;29;20198;-37
2022/07/01 11:09:51;;;;;;;3.70;0.40;;;18.00;99.90;;;;;;4857406;29;20033;-37
2022/07/01 11:12:17;;;;;;;2.22;0.60;;;18.00;99.90;;;;;;4852962;29;20793;-38
2022/07/01 11:14:43;;;;;;;3.25;0.60;;;17.80;99.90;;;;;;4859101;29;20593;-38
2022/07/01 11:17:09;;;;;;;2.20;0.57;;;17.90;99.90;;;;;;4843361;29;20056;-38
2022/07/01 11:19:36;;;;;;;1.30;0.47;;;17.90;99.90;;;;;;4858810;29;20046;-37
2022/07/01 11:22:02;;;;;;;1.30;0.47;;;17.80;99.90;;;;;;4857195;29;20497;-38
2022/07/01 11:24:28;;;;;;;2.08;0.30;;;17.80;99.90;;;;;;4856079;29;20513;-37
2022/07/01 11:27:14;;;;;;;3.50;0.52;;;17.80;99.90;;;;;;4841608;29;20517;-38
2022/07/01 11:29:40;;;;;;;4.85;0.70;;;17.90;99.90;;;;;;4851820;29;20057;-37
2022/07/01 11:32:06;;;;;;;4.15;0.50;;;17.90;99.90;;;;;;4855048;29;20090;-38
2022/07/01 11:34:32;;;;;;;2.67;0.70;;;17.90;99.90;;;;;;4851790;29;20062;-37
2022/07/01 11:39:43;;;;;;;6.28;0.73;;;18.00;99.90;;;;;;4848490;29;20113;-37
2022/07/01 11:42:11;;;;;;;2.30;0.60;;;18.00;99.90;;;;;;4850916;29;20148;-38
2022/07/01 11:44:37;;;;;;;4.57;0.80;;;18.10;99.90;;;;;;4852362;29;20445;-38
2022/07/01 11:47:09;;;;;;;2.22;0.70;;;18.20;99.90;;;;;;4842146;29;20068;-38
2022/07/01 11:49:45;;;;;;;3.35;0.90;;;18.40;99.90;;;;;;4854896;29;20096;-38
2022/07/01 11:52:10;;;;;;;5.25;0.82;;;18.60;99.90;;;;;;4858051;29;20081;-38
2022/07/01 11:54:40;;;;;;;2.22;0.70;;;18.80;99.90;;;;;;4855443;29;20126;-37
2022/07/01 11:57:15;;;;;;;5.80;1.00;;;18.90;99.90;;;;;;4839633;29;20049;-38
2022/07/01 11:59:42;;;;;;;3.22;0.80;;;19.10;99.90;;;;;;4838065;29;20056;-38
2022/07/01 12:02:11;;;;;;;3.13;0.90;;;19.20;99.90;;;;;;4854167;29;20581;-38
2022/07/01 12:04:37;;;;;;;3.63;1.15;;;19.30;99.90;;;;;;4855419;29;20057;-37
2022/07/01 12:07:04;;;;;;;4.53;1.25;;;19.40;99.90;;;;;;4841233;29;20081;-39
2022/07/01 12:09:30;;;;;;;4.18;1.15;;;19.50;99.90;;;;;;4854388;29;20065;-38
2022/07/01 12:11:57;;;;;;;4.15;0.77;;;19.40;99.90;;;;;;4855406;29;20057;-38
2022/07/01 12:14:25;;;;;;;5.50;1.20;;;19.30;99.90;;;;;;4855212;29;20128;-38
2022/07/01 12:16:59;;;;;;;5.80;1.42;;;19.30;99.90;;;;;;4823731;29;20069;-38
2022/07/01 12:19:37;;;;;;;4.40;0.95;;;19.30;99.90;;;;;;4853965;29;20057;-37
2022/07/01 12:22:09;;;;;;;3.72;0.70;;;19.30;99.90;;;;;;4838527;29;20055;-38
2022/07/01 12:24:35;;;;;;;2.10;0.50;;;19.40;99.90;;;;;;4855096;29;21482;-37
2022/07/01 12:27:04;;;;;;;4.13;0.75;;;19.60;99.90;;;;;;4840084;29;20045;-37
2022/07/01 12:29:52;;;;;;;4.53;0.90;;;19.70;99.90;;;;;;4853267;29;20056;-39
2022/07/01 12:32:23;;;;;;;2.15;0.60;;;20.00;99.90;;;;;;4837207;29;20085;-37
2022/07/01 12:34:53;;;;;;;3.72;0.73;;;20.10;99.90;;;;;;4853825;29;20060;-38
2022/07/01 12:37:40;;;;;;;3.60;0.63;;;20.10;99.90;;;;;;4841775;29;20045;-38
2022/07/01 12:40:22;;;;;;;3.75;0.75;;;20.20;99.90;;;;;;4839280;29;20077;-38
2022/07/01 12:42:48;;;;;;;7.45;0.70;;;20.40;99.90;;;;;;4852444;29;20058;-39
2022/07/01 12:45:16;;;;;;;4.32;0.65;;;20.50;99.90;;;;;;4851712;29;20106;-37
2022/07/01 12:47:50;;;;;;;2.50;0.40;;;20.50;99.90;;;;;;4838499;29;20454;-38
2022/07/01 12:50:32;;;;;;;4.38;0.40;;;20.40;99.90;;;;;;4854076;29;20125;-38
2022/07/01 12:53:10;;;;;;;2.63;0.35;;;20.50;99.90;;;;;;4851485;29;20106;-38
2022/07/01 12:55:38;;;;;;;1.50;0.38;;;20.40;99.90;;;;;;4837547;29;20117;-38
2022/07/01 12:58:07;;;;;;;3.05;0.50;;;20.60;99.90;;;;;;4838045;29;20053;-38
2022/07/01 13:00:33;;;;;;;3.33;0.70;;;20.60;99.90;;;;;;4837396;29;20493;-38
2022/07/01 13:03:01;;;;;;;3.28;0.60;;;20.60;99.90;;;;;;4853484;29;20052;-38
2022/07/01 13:05:29;;;;;;;2.45;0.70;;;20.60;99.90;;;;;;4853632;29;20053;-38
2022/07/01 13:07:55;;;;;;;2.42;0.40;;;20.50;99.90;;;;;;4838307;29;20129;-37